EHEH/EIN METAR and TAF weather

Enter ICAO airport designator
Station Type Date Time Source
EHEH METAR 2020/11/27 02:29 UTC NOAA

EHEH 270229Z AUTO 03003KT 8000 -UP OVC034 06/05 Q1019 BLU


Station Type Date Time Source
EHEH Decoded METAR 2020/11/27 02:29 UTC NOAA

Eindhoven, Netherlands (EHEH) 51-27N 005-25E 28M
Nov 26, 2020 - 09:29 PM EST / 2020.11.27 0229 UTC
Wind: from the NNE (030 degrees) at 3 MPH (3 KT):0
Visibility: 4 mile(s):0
Sky conditions: overcast
Weather: light precipitation
Temperature: 42 F (6 C)
Dew Point: 41 F (5 C)
Relative Humidity: 93%
Pressure (altimeter): 30.09 in. Hg (1019 hPa)
ob: EHEH 270229Z AUTO 03003KT 8000 -UP OVC034 06/05 Q1019 BLU
cycle: 2

Station Type Date Time Source
EHEH TAF 2020/11/27 00:00 UTC NOAA

TAF EHEH 262318Z 2700/2806 08003KT 7000 BKN035 PROB40 2701/2704 3500 BR SCT004 BKN005 PROB30
TEMPO 2701/2708 2000 DZRA BR SCT002 OVC003 PROB30 2701/2708 0600 FG BKN001
BECMG 2708/2710 3000 BKN003
BECMG 2710/2712 5000 BKN010
BECMG 2712/2714 04005KT CAVOK PROB30 2719/2724 4000 BR MIFG PROB30 2800/2806 1000 BCFG

Example: see airport list